createdAt,value
2023-02-07T00:00:39.444Z,14.70
2023-02-07T00:03:41.884Z,16.05
2023-02-07T00:06:44.112Z,17.23
2023-02-07T00:09:46.239Z,16.67
2023-02-07T00:12:49.970Z,16.53
2023-02-07T00:15:52.097Z,17.33
2023-02-07T00:18:55.050Z,17.88
2023-02-07T00:21:57.156Z,17.80
2023-02-07T00:24:59.303Z,17.67
2023-02-07T00:28:01.545Z,17.45
2023-02-07T00:31:08.973Z,17.38
2023-02-07T00:34:11.798Z,16.88
2023-02-07T00:37:14.001Z,17.95
2023-02-07T00:40:18.591Z,17.23
2023-02-07T00:43:29.373Z,16.67
2023-02-07T00:46:33.080Z,18.50
2023-02-07T00:49:35.319Z,18.20
2023-02-07T00:52:37.602Z,17.93
2023-02-07T00:55:39.934Z,17.75
2023-02-07T00:58:42.134Z,16.70
2023-02-07T01:01:44.388Z,17.13
2023-02-07T01:04:46.541Z,16.65
2023-02-07T01:07:48.715Z,16.80
2023-02-07T01:10:50.867Z,16.35
2023-02-07T01:13:53.154Z,15.40
2023-02-07T01:16:57.595Z,16.42
2023-02-07T01:20:00.013Z,15.48
2023-02-07T01:23:02.406Z,14.93
2023-02-07T01:26:05.714Z,15.38
2023-02-07T01:29:08.554Z,16.27
2023-02-07T01:32:10.801Z,16.00
2023-02-07T01:35:12.959Z,16.02
2023-02-07T01:38:15.923Z,15.23
2023-02-07T01:41:18.586Z,15.85
2023-02-07T01:44:23.764Z,15.93
2023-02-07T01:47:26.551Z,17.52
2023-02-07T01:50:29.320Z,16.50
2023-02-07T01:53:33.138Z,15.23
2023-02-07T01:56:36.169Z,15.77
2023-02-07T01:59:40.882Z,17.23
2023-02-07T02:02:43.593Z,17.27
2023-02-07T02:05:50.184Z,17.02
2023-02-07T02:08:58.035Z,17.25
2023-02-07T02:12:18.469Z,17.33
2023-02-07T02:15:48.599Z,16.13
2023-02-07T02:18:59.630Z,16.70
2023-02-07T02:22:32.734Z,15.20
2023-02-07T02:25:53.688Z,16.63
2023-02-07T02:29:53.495Z,15.63
2023-02-07T02:33:02.275Z,16.42
2023-02-07T02:36:23.257Z,16.60
2023-02-07T02:40:12.875Z,17.30
2023-02-07T02:43:25.204Z,16.48
2023-02-07T02:46:34.983Z,16.15
2023-02-07T02:49:37.871Z,16.70
2023-02-07T02:52:50.345Z,15.77
2023-02-07T02:56:29.825Z,16.17
2023-02-07T02:59:41.913Z,16.20
2023-02-07T03:02:57.729Z,16.20
2023-02-07T03:06:18.833Z,15.45
2023-02-07T03:09:27.006Z,16.83
2023-02-07T03:12:52.471Z,15.43
2023-02-07T03:16:23.643Z,15.50
2023-02-07T03:19:33.407Z,16.65
2023-02-07T03:22:36.054Z,15.00
2023-02-07T03:25:39.311Z,14.98
2023-02-07T03:28:43.931Z,15.63
2023-02-07T03:31:49.048Z,15.40
2023-02-07T03:34:54.427Z,15.65
2023-02-07T03:38:03.495Z,15.82
2023-02-07T03:41:12.008Z,16.45
2023-02-07T03:44:15.282Z,15.38
2023-02-07T03:47:18.819Z,17.08
2023-02-07T03:50:21.119Z,17.17
2023-02-07T03:53:23.307Z,17.03
2023-02-07T03:56:25.438Z,17.08
2023-02-07T03:59:27.943Z,16.63
2023-02-07T04:02:30.586Z,18.10
2023-02-07T04:05:32.718Z,16.15
2023-02-07T04:08:35.122Z,17.67
2023-02-07T04:11:37.252Z,16.60
2023-02-07T04:14:39.386Z,17.63
2023-02-07T04:17:41.729Z,17.65
2023-02-07T04:20:44.019Z,17.75
2023-02-07T04:23:46.164Z,17.60
2023-02-07T04:26:48.935Z,19.02
2023-02-07T04:29:51.262Z,18.17
2023-02-07T04:32:55.846Z,18.17
2023-02-07T04:35:59.935Z,18.00
2023-02-07T04:39:02.541Z,18.60
2023-02-07T04:42:04.909Z,18.60
2023-02-07T04:45:07.335Z,18.70
2023-02-07T04:48:09.491Z,17.50
2023-02-07T04:51:12.153Z,18.55
2023-02-07T04:54:14.330Z,18.57
2023-02-07T04:57:16.763Z,19.38
2023-02-07T05:00:19.528Z,19.83
2023-02-07T05:03:21.698Z,19.23
2023-02-07T05:06:23.815Z,18.77
2023-02-07T05:09:26.003Z,17.38
2023-02-07T05:12:28.213Z,18.67
2023-02-07T05:15:30.799Z,18.95
2023-02-07T05:18:32.982Z,18.95
2023-02-07T05:21:35.730Z,19.10
2023-02-07T05:24:38.794Z,18.37
2023-02-07T05:27:41.187Z,18.52
2023-02-07T05:30:43.413Z,19.10
2023-02-07T05:33:45.744Z,17.87
2023-02-07T05:36:47.895Z,18.40
2023-02-07T05:39:50.055Z,18.70
2023-02-07T05:42:52.442Z,19.50
2023-02-07T05:45:54.779Z,18.63
2023-02-07T05:48:56.957Z,18.15
2023-02-07T05:51:59.157Z,19.23
2023-02-07T05:55:01.427Z,19.10
2023-02-07T05:58:03.779Z,19.67
2023-02-07T06:01:05.948Z,17.77
2023-02-07T06:04:08.167Z,19.50
2023-02-07T06:07:10.334Z,18.85
2023-02-07T06:10:13.276Z,19.88
2023-02-07T06:13:15.596Z,19.65
2023-02-07T06:16:17.814Z,18.92
2023-02-07T06:19:20.084Z,20.45
2023-02-07T06:22:22.608Z,19.58
2023-02-07T06:25:27.748Z,18.70
2023-02-07T06:28:29.980Z,19.75
2023-02-07T06:31:32.234Z,20.92
2023-02-07T06:34:34.540Z,20.57
2023-02-07T06:37:37.119Z,20.70
2023-02-07T06:40:44.621Z,21.90
2023-02-07T06:43:49.574Z,23.25
2023-02-07T06:46:51.915Z,22.92
2023-02-07T06:49:54.657Z,23.83
2023-02-07T06:53:01.897Z,22.60
2023-02-07T06:56:04.372Z,24.63
2023-02-07T06:59:06.709Z,23.35
2023-02-07T07:02:11.124Z,22.13
2023-02-07T07:05:15.468Z,23.57
2023-02-07T07:08:19.110Z,22.17
2023-02-07T07:11:22.421Z,21.83
2023-02-07T07:14:24.630Z,21.08
2023-02-07T07:17:31.735Z,19.60
2023-02-07T07:20:34.118Z,19.27
2023-02-07T07:23:36.727Z,17.90
2023-02-07T07:26:49.431Z,19.33
2023-02-07T07:29:52.766Z,20.50
2023-02-07T07:32:55.614Z,18.65
2023-02-07T07:35:59.432Z,18.50
2023-02-07T07:39:01.700Z,17.65
2023-02-07T07:42:05.593Z,16.23
2023-02-07T07:45:31.106Z,17.88
2023-02-07T07:48:36.036Z,15.82
2023-02-07T07:51:38.312Z,15.95
2023-02-07T07:54:40.529Z,16.40
2023-02-07T07:57:42.733Z,14.70
2023-02-07T08:00:45.192Z,15.73
2023-02-07T08:03:54.911Z,15.35
2023-02-07T08:06:57.890Z,14.73
2023-02-07T08:10:00.315Z,14.27
2023-02-07T08:13:03.004Z,14.65
2023-02-07T08:16:10.967Z,14.38
2023-02-07T08:19:13.224Z,14.55
2023-02-07T08:22:15.848Z,14.07
2023-02-07T08:25:22.684Z,15.82
2023-02-07T08:28:26.273Z,14.10
2023-02-07T08:31:28.607Z,13.60
2023-02-07T08:34:37.131Z,13.73
2023-02-07T08:37:39.440Z,14.80
2023-02-07T08:40:42.043Z,14.40
2023-02-07T08:43:46.809Z,13.85
2023-02-07T08:46:49.212Z,13.70
2023-02-07T08:49:51.849Z,14.55
2023-02-07T08:52:58.074Z,15.13
2023-02-07T08:56:04.156Z,14.50
2023-02-07T08:59:09.262Z,13.97
2023-02-07T09:02:12.498Z,13.65
2023-02-07T09:05:25.363Z,12.98
2023-02-07T09:08:27.688Z,13.87
2023-02-07T09:11:33.288Z,13.45
2023-02-07T09:14:35.829Z,13.23
2023-02-07T09:17:58.281Z,13.93
2023-02-07T09:21:02.525Z,12.82
2023-02-07T09:24:04.870Z,12.63
2023-02-07T09:27:08.566Z,12.55
2023-02-07T09:30:12.175Z,11.20
2023-02-07T09:33:15.264Z,12.27
2023-02-07T09:36:21.586Z,12.18
2023-02-07T09:39:24.730Z,11.70
2023-02-07T09:42:33.935Z,12.10
2023-02-07T09:45:41.234Z,12.48
2023-02-07T09:48:51.432Z,12.30
2023-02-07T09:51:57.254Z,11.15
2023-02-07T09:55:05.542Z,11.90
2023-02-07T09:58:41.252Z,11.00
2023-02-07T10:01:51.685Z,10.53
2023-02-07T10:04:59.240Z,11.55
2023-02-07T10:08:01.434Z,10.43
2023-02-07T10:11:19.425Z,9.83
2023-02-07T10:14:53.870Z,9.90
2023-02-07T10:18:34.398Z,10.35
2023-02-07T10:21:58.118Z,10.30
2023-02-07T10:25:16.971Z,9.93
2023-02-07T10:28:51.656Z,10.02
2023-02-07T10:31:55.086Z,9.25
2023-02-07T10:35:04.653Z,9.70
2023-02-07T10:38:22.954Z,9.50
2023-02-07T10:41:40.197Z,9.23
2023-02-07T10:44:43.027Z,9.73
2023-02-07T10:47:45.951Z,10.18
2023-02-07T10:50:48.988Z,11.07
2023-02-07T10:54:07.588Z,9.88
2023-02-07T10:57:17.158Z,10.32
2023-02-07T11:08:14.734Z,9.20
2023-02-07T11:11:40.610Z,9.10
2023-02-07T11:15:01.378Z,8.45
2023-02-07T11:18:04.199Z,8.63
2023-02-07T11:21:08.477Z,8.00
2023-02-07T11:24:31.262Z,8.02
2023-02-07T11:27:38.631Z,8.45
2023-02-07T11:30:40.866Z,8.25
2023-02-07T11:33:43.340Z,8.23
2023-02-07T11:36:48.305Z,8.18
2023-02-07T11:39:54.285Z,8.07
2023-02-07T11:43:22.155Z,8.20
2023-02-07T11:46:31.677Z,8.00
2023-02-07T11:49:38.159Z,8.20
2023-02-07T11:52:44.304Z,8.52
2023-02-07T11:55:46.585Z,8.18
2023-02-07T11:58:53.768Z,8.70
2023-02-07T12:01:58.572Z,8.43
2023-02-07T12:05:28.241Z,8.52
2023-02-07T12:08:38.289Z,8.95
2023-02-07T12:11:41.224Z,8.90
2023-02-07T12:14:56.205Z,9.20
2023-02-07T12:18:03.418Z,8.13
2023-02-07T12:21:25.278Z,9.90
2023-02-07T12:24:42.644Z,8.60
2023-02-07T12:27:46.315Z,9.45
2023-02-07T12:30:54.167Z,9.32
2023-02-07T12:34:21.135Z,9.55
2023-02-07T12:37:31.015Z,8.60
2023-02-07T12:40:40.506Z,10.07
2023-02-07T12:43:51.213Z,8.67
2023-02-07T12:47:15.368Z,8.80
2023-02-07T12:50:29.770Z,8.80
2023-02-07T12:54:09.731Z,9.40
2023-02-07T12:57:39.629Z,9.70
2023-02-07T13:01:02.438Z,9.57
2023-02-07T13:04:38.697Z,8.50
2023-02-07T13:07:49.816Z,9.82
2023-02-07T13:11:01.028Z,9.45
2023-02-07T13:14:12.546Z,10.18
2023-02-07T13:17:38.747Z,10.07
2023-02-07T13:20:50.124Z,10.70
2023-02-07T13:24:00.589Z,9.80
2023-02-07T13:27:06.475Z,9.40
2023-02-07T13:30:17.048Z,8.75
2023-02-07T13:33:25.134Z,9.90
2023-02-07T13:36:43.895Z,10.45
2023-02-07T13:40:02.482Z,10.15
2023-02-07T13:43:13.750Z,9.57
2023-02-07T13:46:46.489Z,10.50
2023-02-07T13:50:24.043Z,9.93
2023-02-07T13:54:02.373Z,10.70
2023-02-07T13:57:23.048Z,9.88
2023-02-07T14:04:08.385Z,10.43
2023-02-07T14:07:21.239Z,10.65
2023-02-07T14:10:40.872Z,10.40
2023-02-07T14:13:44.466Z,11.07
2023-02-07T14:16:54.157Z,11.23
2023-02-07T14:20:01.050Z,10.57
2023-02-07T14:23:11.104Z,10.37
2023-02-07T14:26:38.220Z,11.27
2023-02-07T14:29:41.594Z,10.93
2023-02-07T14:32:45.319Z,10.57
2023-02-07T14:36:04.850Z,10.55
2023-02-07T14:39:27.932Z,10.48
2023-02-07T14:42:30.191Z,10.73
2023-02-07T14:45:35.779Z,11.80
2023-02-07T14:49:07.383Z,11.45
2023-02-07T14:52:15.858Z,10.75
2023-02-07T14:55:22.252Z,10.97
2023-02-07T14:58:38.360Z,11.95
2023-02-07T15:01:40.578Z,11.23
2023-02-07T15:04:43.738Z,11.73
2023-02-07T15:07:47.235Z,11.05
2023-02-07T15:11:04.871Z,12.77
2023-02-07T15:14:07.189Z,11.48
2023-02-07T15:17:10.890Z,11.68
2023-02-07T15:20:19.523Z,11.82
2023-02-07T15:23:23.220Z,12.48
2023-02-07T15:26:25.500Z,11.03
2023-02-07T15:29:39.052Z,11.32
2023-02-07T15:32:52.630Z,11.77
2023-02-07T15:35:54.861Z,12.13
2023-02-07T15:38:58.356Z,10.85
2023-02-07T15:42:00.605Z,11.30
2023-02-07T15:45:04.067Z,11.35
2023-02-07T15:48:15.670Z,10.80
2023-02-07T15:51:30.496Z,11.32
2023-02-07T15:54:37.417Z,10.18
2023-02-07T15:57:43.027Z,10.00
2023-02-07T16:00:45.240Z,10.63
2023-02-07T16:03:47.774Z,10.18
2023-02-07T16:07:12.242Z,10.10
2023-02-07T16:10:34.713Z,9.65
2023-02-07T16:13:44.841Z,10.65
2023-02-07T16:16:55.335Z,10.43
2023-02-07T16:19:57.483Z,10.93
2023-02-07T16:23:04.576Z,12.05
2023-02-07T16:26:06.846Z,12.80
2023-02-07T16:29:13.875Z,13.53
2023-02-07T16:32:16.981Z,14.70
2023-02-07T16:35:25.428Z,13.95
2023-02-07T16:38:27.589Z,13.83
2023-02-07T16:41:32.352Z,13.95
2023-02-07T16:44:35.984Z,16.50
2023-02-07T16:47:38.144Z,15.13
2023-02-07T16:50:40.633Z,12.68
2023-02-07T16:53:43.115Z,12.43
2023-02-07T16:56:47.193Z,17.10
2023-02-07T16:59:49.342Z,15.37
2023-02-07T17:02:52.755Z,16.77
2023-02-07T17:05:54.931Z,14.52
2023-02-07T17:08:57.081Z,13.57
2023-02-07T17:11:59.269Z,13.23
2023-02-07T17:15:02.393Z,13.05
2023-02-07T17:18:04.664Z,15.00
2023-02-07T17:21:08.940Z,14.80
2023-02-07T17:24:11.198Z,23.55
2023-02-07T17:27:14.716Z,40.30
2023-02-07T17:30:38.481Z,21.90
2023-02-07T17:33:41.021Z,18.70
2023-02-07T17:36:48.478Z,22.25
2023-02-07T17:39:52.603Z,23.03
2023-02-07T17:42:54.796Z,15.98
2023-02-07T17:45:57.123Z,15.73
2023-02-07T17:48:59.712Z,14.60
2023-02-07T17:52:02.749Z,13.98
2023-02-07T17:55:05.295Z,13.80
2023-02-07T17:58:07.584Z,14.52
2023-02-07T18:01:09.817Z,16.80
2023-02-07T18:04:12.113Z,13.77
2023-02-07T18:07:14.641Z,13.70
2023-02-07T18:10:28.394Z,13.33
2023-02-07T18:13:30.640Z,13.35
2023-02-07T18:16:32.865Z,16.02
2023-02-07T18:19:35.082Z,17.23
2023-02-07T18:22:37.560Z,16.38
2023-02-07T18:25:39.962Z,15.38
2023-02-07T18:28:43.431Z,16.30
2023-02-07T18:31:46.420Z,16.47
2023-02-07T18:34:49.135Z,15.43
2023-02-07T18:37:51.633Z,15.95
2023-02-07T18:40:53.948Z,15.20
2023-02-07T18:43:56.357Z,15.10
2023-02-07T18:46:58.633Z,15.52
2023-02-07T18:50:03.452Z,15.00
2023-02-07T18:53:05.755Z,16.00
2023-02-07T18:56:11.232Z,15.38
2023-02-07T18:59:17.250Z,16.88
2023-02-07T19:02:19.661Z,16.37
2023-02-07T19:05:22.091Z,16.17
2023-02-07T19:08:24.302Z,16.88
2023-02-07T19:11:26.761Z,16.67
2023-02-07T19:14:35.476Z,17.05
2023-02-07T19:17:37.844Z,16.70
2023-02-07T19:20:40.397Z,16.90
2023-02-07T19:23:42.939Z,16.23
2023-02-07T19:26:46.869Z,16.85
2023-02-07T19:29:49.205Z,16.65
2023-02-07T19:32:52.037Z,16.00
2023-02-07T19:35:54.685Z,16.23
2023-02-07T19:38:57.230Z,16.65
2023-02-07T19:45:15.922Z,16.33
2023-02-07T19:48:18.124Z,17.35
2023-02-07T19:51:27.335Z,16.10
2023-02-07T19:54:29.772Z,16.92
2023-02-07T19:57:33.336Z,17.38
2023-02-07T20:00:35.735Z,17.42
2023-02-07T20:03:45.328Z,17.20
2023-02-07T20:06:47.510Z,17.35
2023-02-07T20:09:50.114Z,17.17
2023-02-07T20:12:52.355Z,17.63
2023-02-07T20:15:54.551Z,19.90
2023-02-07T20:18:56.982Z,18.42
2023-02-07T20:21:59.223Z,19.52
2023-02-07T20:25:01.669Z,20.30
2023-02-07T20:28:05.175Z,20.27
2023-02-07T20:31:11.789Z,20.52
2023-02-07T20:34:14.905Z,19.50
2023-02-07T20:37:17.186Z,20.30
2023-02-07T20:40:19.411Z,20.08
2023-02-07T20:43:21.550Z,20.33
2023-02-07T20:46:24.218Z,19.27
2023-02-07T20:49:28.907Z,20.33
2023-02-07T20:52:31.251Z,19.58
2023-02-07T20:55:33.491Z,19.48
2023-02-07T20:58:35.913Z,21.85
2023-02-07T21:01:39.474Z,20.83
2023-02-07T21:04:42.940Z,20.07
2023-02-07T21:07:45.154Z,20.92
2023-02-07T21:10:47.323Z,20.33
2023-02-07T21:13:53.999Z,21.77
2023-02-07T21:17:02.371Z,21.13
2023-02-07T21:20:04.963Z,20.65
2023-02-07T21:23:07.789Z,22.42
2023-02-07T21:26:11.811Z,21.45
2023-02-07T21:29:17.185Z,23.08
2023-02-07T21:32:19.700Z,22.10
2023-02-07T21:35:21.834Z,21.40
2023-02-07T21:38:24.034Z,22.50
2023-02-07T21:41:28.930Z,21.25
2023-02-07T21:44:31.122Z,22.13
2023-02-07T21:47:33.295Z,21.35
2023-02-07T21:50:35.448Z,21.38
2023-02-07T21:53:38.163Z,20.83
2023-02-07T21:56:45.387Z,21.30
2023-02-07T21:59:47.780Z,21.85
2023-02-07T22:02:50.472Z,20.42
2023-02-07T22:05:52.937Z,19.70
2023-02-07T22:08:57.404Z,21.02
2023-02-07T22:11:59.729Z,20.45
2023-02-07T22:15:01.983Z,19.93
2023-02-07T22:18:05.108Z,20.92
2023-02-07T22:21:10.660Z,21.10
2023-02-07T22:24:14.602Z,19.85
2023-02-07T22:27:16.849Z,21.25
2023-02-07T22:30:19.869Z,19.67
2023-02-07T22:33:33.783Z,21.35
2023-02-07T22:36:39.244Z,20.33
2023-02-07T22:39:52.439Z,19.85
2023-02-07T22:46:32.539Z,18.87
2023-02-07T22:53:15.948Z,20.50
2023-02-07T22:56:18.678Z,20.45
2023-02-07T22:59:20.921Z,21.90
2023-02-07T23:02:23.078Z,20.65
2023-02-07T23:05:25.253Z,21.55
2023-02-07T23:08:27.424Z,20.27
2023-02-07T23:11:31.852Z,19.33
2023-02-07T23:14:34.016Z,20.48
2023-02-07T23:17:36.164Z,19.43
2023-02-07T23:20:38.560Z,19.17
2023-02-07T23:23:41.032Z,18.63
2023-02-07T23:26:43.192Z,18.35
2023-02-07T23:29:45.308Z,17.58
2023-02-07T23:32:47.455Z,19.42
2023-02-07T23:35:49.571Z,18.17
2023-02-07T23:38:51.804Z,18.30
2023-02-07T23:45:10.083Z,17.58
2023-02-07T23:48:12.318Z,17.10
2023-02-07T23:51:15.184Z,17.73
2023-02-07T23:54:17.344Z,17.20
2023-02-07T23:57:19.479Z,16.80
